createdAt,value
2018-12-23T00:00:52.287Z,91.08
2018-12-23T00:03:18.431Z,90.51
2018-12-23T00:05:44.574Z,90.71
2018-12-23T00:08:10.670Z,90.58
2018-12-23T00:10:36.782Z,90.76
2018-12-23T00:13:02.895Z,90.65
2018-12-23T00:15:29.007Z,90.55
2018-12-23T00:17:55.104Z,90.32
2018-12-23T00:20:21.225Z,91.11
2018-12-23T00:22:47.331Z,90.88
2018-12-23T00:25:13.448Z,91.22
2018-12-23T00:27:39.559Z,90.64
2018-12-23T00:30:06.814Z,90.67
2018-12-23T00:32:32.938Z,91.06
2018-12-23T00:34:59.048Z,90.39
2018-12-23T00:37:25.159Z,90.39
2018-12-23T00:39:51.250Z,90.69
2018-12-23T00:42:17.358Z,89.78
2018-12-23T00:44:43.457Z,89.65
2018-12-23T00:47:09.575Z,90.04
2018-12-23T00:49:35.674Z,90.85
2018-12-23T00:52:01.778Z,90.00
2018-12-23T00:54:27.975Z,89.75
2018-12-23T00:56:54.098Z,90.34
2018-12-23T00:59:20.195Z,89.57
2018-12-23T01:01:46.316Z,90.56
2018-12-23T01:04:12.416Z,90.21
2018-12-23T01:06:38.530Z,89.88
2018-12-23T01:09:05.304Z,89.79
2018-12-23T01:11:31.418Z,90.48
2018-12-23T01:13:57.514Z,89.96
2018-12-23T01:16:23.801Z,89.43
2018-12-23T01:18:49.915Z,90.33
2018-12-23T01:21:16.291Z,90.59
2018-12-23T01:23:42.391Z,90.09
2018-12-23T01:26:08.511Z,89.82
2018-12-23T01:28:34.610Z,90.71
2018-12-23T01:31:00.719Z,90.25
2018-12-23T01:33:26.829Z,89.99
2018-12-23T01:35:52.936Z,90.01
2018-12-23T01:38:19.039Z,90.04
2018-12-23T01:40:45.134Z,90.33
2018-12-23T01:43:11.258Z,89.52
2018-12-23T01:45:37.350Z,89.15
2018-12-23T01:48:03.487Z,90.71
2018-12-23T01:50:29.600Z,89.21
2018-12-23T01:52:55.712Z,90.30
2018-12-23T01:55:21.834Z,89.63
2018-12-23T01:57:47.951Z,89.92
2018-12-23T02:00:14.106Z,90.09
2018-12-23T02:02:40.213Z,89.57
2018-12-23T02:05:06.446Z,89.94
2018-12-23T02:07:32.555Z,89.94
2018-12-23T02:09:58.696Z,90.74
2018-12-23T02:12:24.786Z,90.93
2018-12-23T02:14:50.992Z,90.61
2018-12-23T02:17:17.152Z,89.52
2018-12-23T02:19:43.266Z,90.29
2018-12-23T02:22:09.366Z,90.32
2018-12-23T02:24:35.474Z,90.34
2018-12-23T02:27:01.584Z,89.97
2018-12-23T02:29:27.715Z,90.39
2018-12-23T02:31:53.823Z,90.05
2018-12-23T02:34:19.938Z,90.04
2018-12-23T02:36:46.032Z,90.41
2018-12-23T02:39:12.146Z,90.13
2018-12-23T02:41:38.252Z,90.97
2018-12-23T02:44:04.373Z,90.18
2018-12-23T02:46:30.494Z,90.43
2018-12-23T02:48:56.611Z,90.71
2018-12-23T02:51:22.707Z,90.87
2018-12-23T02:53:48.810Z,90.79
2018-12-23T02:56:14.910Z,89.89
2018-12-23T02:58:41.038Z,90.63
2018-12-23T03:01:07.228Z,90.75
2018-12-23T03:03:33.342Z,90.21
2018-12-23T03:06:05.735Z,90.12
2018-12-23T03:08:27.579Z,90.06
2018-12-23T03:10:53.714Z,89.68
2018-12-23T03:13:19.814Z,90.57
2018-12-23T03:15:45.928Z,90.09
2018-12-23T03:18:12.043Z,89.75
2018-12-23T03:20:38.166Z,90.53
2018-12-23T03:23:04.270Z,90.80
2018-12-23T03:25:30.520Z,89.49
2018-12-23T03:27:56.610Z,89.80
2018-12-23T03:30:22.734Z,90.39
2018-12-23T03:32:48.849Z,90.13
2018-12-23T03:35:14.994Z,90.40
2018-12-23T03:37:41.100Z,89.66
2018-12-23T03:40:07.375Z,90.67
2018-12-23T03:42:33.481Z,89.66
2018-12-23T03:44:59.582Z,89.93
2018-12-23T03:47:25.670Z,90.32
2018-12-23T03:49:51.902Z,89.96
2018-12-23T03:52:18.006Z,90.41
2018-12-23T03:54:44.112Z,90.24
2018-12-23T03:57:10.219Z,90.12
2018-12-23T03:59:36.326Z,90.05
2018-12-23T04:02:02.446Z,90.98
2018-12-23T04:04:28.530Z,89.96
2018-12-23T04:06:54.763Z,90.71
2018-12-23T04:09:20.925Z,89.49
2018-12-23T04:11:47.099Z,90.09
2018-12-23T04:14:13.194Z,90.83
2018-12-23T04:16:39.298Z,89.98
2018-12-23T04:19:05.398Z,90.30
2018-12-23T04:21:31.517Z,89.93
2018-12-23T04:23:57.798Z,90.03
2018-12-23T04:26:24.067Z,90.11
2018-12-23T04:28:50.155Z,89.89
2018-12-23T04:31:16.267Z,90.40
2018-12-23T04:33:42.369Z,89.21
2018-12-23T04:36:08.486Z,90.55
2018-12-23T04:38:34.587Z,90.26
2018-12-23T04:41:00.702Z,89.79
2018-12-23T04:43:26.810Z,89.59
2018-12-23T04:45:53.009Z,89.70
2018-12-23T04:48:19.242Z,89.99
2018-12-23T04:50:45.362Z,89.33
2018-12-23T04:53:11.458Z,89.97
2018-12-23T04:55:37.556Z,90.34
2018-12-23T04:58:03.694Z,89.49
2018-12-23T05:00:29.811Z,89.98
2018-12-23T05:02:55.934Z,89.87
2018-12-23T05:05:22.027Z,89.99
2018-12-23T05:07:48.131Z,89.53
2018-12-23T05:10:14.249Z,89.96
2018-12-23T05:12:40.367Z,89.63
2018-12-23T05:15:06.479Z,89.88
2018-12-23T05:17:32.583Z,89.99
2018-12-23T05:19:58.667Z,89.81
2018-12-23T05:22:24.767Z,90.06
2018-12-23T05:24:50.863Z,89.14
2018-12-23T05:27:16.982Z,90.13
2018-12-23T05:29:43.083Z,89.96
2018-12-23T05:32:09.202Z,89.67
2018-12-23T05:34:35.314Z,90.00
2018-12-23T05:37:01.424Z,90.07
2018-12-23T05:39:27.514Z,89.44
2018-12-23T05:41:53.628Z,89.40
2018-12-23T05:44:19.739Z,89.69
2018-12-23T05:46:45.843Z,89.83
2018-12-23T05:49:11.938Z,89.62
2018-12-23T05:51:38.039Z,89.82
2018-12-23T05:54:04.143Z,89.78
2018-12-23T05:56:30.236Z,89.19
2018-12-23T05:58:56.355Z,89.15
2018-12-23T06:01:22.453Z,89.79
2018-12-23T06:03:48.558Z,89.02
2018-12-23T06:06:14.688Z,90.23
2018-12-23T06:08:40.814Z,90.62
2018-12-23T06:11:06.915Z,90.00
2018-12-23T06:13:33.011Z,89.11
2018-12-23T06:15:59.129Z,90.07
2018-12-23T06:18:25.235Z,90.50
2018-12-23T06:20:51.334Z,89.87
2018-12-23T06:23:17.446Z,90.12
2018-12-23T06:25:43.555Z,90.46
2018-12-23T06:28:09.672Z,90.02
2018-12-23T06:30:35.768Z,89.17
2018-12-23T06:33:01.867Z,90.48
2018-12-23T06:35:27.986Z,89.59
2018-12-23T06:37:54.086Z,89.96
2018-12-23T06:40:20.323Z,89.36
2018-12-23T06:42:46.410Z,89.77
2018-12-23T06:45:12.531Z,90.38
2018-12-23T06:47:38.618Z,89.84
2018-12-23T06:50:04.755Z,89.64
2018-12-23T06:52:30.855Z,89.33
2018-12-23T06:54:56.971Z,89.70
2018-12-23T06:57:23.076Z,89.41
2018-12-23T06:59:49.199Z,89.55
2018-12-23T07:02:15.303Z,89.45
2018-12-23T07:04:41.404Z,89.45
2018-12-23T07:07:07.515Z,89.53
2018-12-23T07:09:33.621Z,90.54
2018-12-23T07:11:59.711Z,89.11
2018-12-23T07:14:25.823Z,89.37
2018-12-23T07:16:51.913Z,90.04
2018-12-23T07:19:18.025Z,89.96
2018-12-23T07:21:44.130Z,89.62
2018-12-23T07:24:10.239Z,89.55
2018-12-23T07:26:36.347Z,89.53
2018-12-23T07:29:02.459Z,89.79
2018-12-23T07:31:28.591Z,89.44
2018-12-23T07:33:54.691Z,88.87
2018-12-23T07:36:20.799Z,88.53
2018-12-23T07:38:46.893Z,89.40
2018-12-23T07:41:13.054Z,89.51
2018-12-23T07:43:39.155Z,88.52
2018-12-23T07:46:05.258Z,88.74
2018-12-23T07:48:31.355Z,89.52
2018-12-23T07:50:57.445Z,88.85
2018-12-23T07:53:23.540Z,89.65
2018-12-23T07:55:49.651Z,89.04
2018-12-23T07:58:15.746Z,89.33
2018-12-23T08:00:41.870Z,89.87
2018-12-23T08:03:07.978Z,88.16
2018-12-23T08:05:34.070Z,88.51
2018-12-23T08:08:00.175Z,89.13
2018-12-23T08:10:26.270Z,88.46
2018-12-23T08:12:52.374Z,88.73
2018-12-23T08:15:18.472Z,89.14
2018-12-23T08:17:44.586Z,90.05
2018-12-23T08:20:10.717Z,90.49
2018-12-23T08:22:36.866Z,89.35
2018-12-23T08:25:03.118Z,89.90
2018-12-23T08:27:29.214Z,90.32
2018-12-23T08:29:55.314Z,89.16
2018-12-23T08:32:21.437Z,89.45
2018-12-23T08:34:47.549Z,89.67
2018-12-23T08:37:13.654Z,89.03
2018-12-23T08:39:39.787Z,88.18
2018-12-23T08:42:05.895Z,88.17
2018-12-23T08:44:32.135Z,89.68
2018-12-23T08:46:58.246Z,87.99
2018-12-23T08:49:24.340Z,88.09
2018-12-23T08:51:50.435Z,88.08
2018-12-23T08:54:16.575Z,88.60
2018-12-23T08:56:42.718Z,88.93
2018-12-23T08:59:08.809Z,89.47
2018-12-23T09:01:34.943Z,87.50
2018-12-23T09:04:01.067Z,88.16
2018-12-23T09:06:27.257Z,87.90
2018-12-23T09:08:53.402Z,87.96
2018-12-23T09:11:19.502Z,88.85
2018-12-23T09:13:45.603Z,88.60
2018-12-23T09:16:11.706Z,87.95
2018-12-23T09:18:37.956Z,87.79
2018-12-23T09:21:04.054Z,89.68
2018-12-23T09:23:30.174Z,87.82
2018-12-23T09:25:56.274Z,88.34
2018-12-23T09:28:22.483Z,88.15
2018-12-23T09:30:48.579Z,88.30
2018-12-23T09:33:14.674Z,88.28
2018-12-23T09:35:40.792Z,87.80
2018-12-23T09:38:06.899Z,88.34
2018-12-23T09:40:33.003Z,88.73
2018-12-23T09:42:59.111Z,89.08
2018-12-23T09:45:25.211Z,88.34
2018-12-23T09:47:51.319Z,87.90
2018-12-23T09:50:17.451Z,88.24
2018-12-23T09:52:43.543Z,87.92
2018-12-23T09:55:09.654Z,88.71
2018-12-23T09:57:35.768Z,87.96
2018-12-23T10:00:02.275Z,87.70
2018-12-23T10:02:28.419Z,88.24
2018-12-23T10:04:54.534Z,88.16
2018-12-23T10:07:20.631Z,87.04
2018-12-23T10:09:46.740Z,87.49
2018-12-23T10:12:12.887Z,87.58
2018-12-23T10:14:38.993Z,87.98
2018-12-23T10:17:05.081Z,88.31
2018-12-23T10:19:31.306Z,88.32
2018-12-23T10:21:57.408Z,87.65
2018-12-23T10:24:23.547Z,87.49
2018-12-23T10:26:49.655Z,87.96
2018-12-23T10:29:15.781Z,87.42
2018-12-23T10:31:41.920Z,88.02
2018-12-23T10:34:08.051Z,87.41
2018-12-23T10:36:34.183Z,86.88
2018-12-23T10:39:00.320Z,87.37
2018-12-23T10:41:26.463Z,87.48
2018-12-23T10:43:52.577Z,86.98
2018-12-23T10:46:18.766Z,88.32
2018-12-23T10:48:44.888Z,87.71
2018-12-23T10:51:11.026Z,87.60
2018-12-23T10:53:37.139Z,86.67
2018-12-23T10:56:03.263Z,86.87
2018-12-23T10:58:29.363Z,87.17
2018-12-23T11:00:55.525Z,86.71
2018-12-23T11:03:21.714Z,86.87
2018-12-23T11:05:47.834Z,87.68
2018-12-23T11:08:13.937Z,86.31
2018-12-23T11:10:40.075Z,85.82
2018-12-23T11:13:06.198Z,86.08
2018-12-23T11:15:32.322Z,86.53
2018-12-23T11:17:58.425Z,87.02
2018-12-23T11:20:24.547Z,87.30
2018-12-23T11:22:50.787Z,85.46
2018-12-23T11:25:16.891Z,86.36
2018-12-23T11:27:43.014Z,87.37
2018-12-23T11:30:09.122Z,87.29
2018-12-23T11:32:35.227Z,87.73
2018-12-23T11:35:01.322Z,86.85
2018-12-23T11:37:27.450Z,86.77
2018-12-23T11:39:53.551Z,86.79
2018-12-23T11:42:19.652Z,86.58
2018-12-23T11:44:45.760Z,87.01
2018-12-23T11:47:11.867Z,87.09
2018-12-23T11:49:38.012Z,86.80
2018-12-23T11:52:04.130Z,86.74
2018-12-23T11:54:30.232Z,87.17
2018-12-23T11:56:56.351Z,86.99
2018-12-23T11:59:22.455Z,86.52
2018-12-23T12:01:48.578Z,86.83
2018-12-23T12:04:14.678Z,86.95
2018-12-23T12:06:40.771Z,86.67
2018-12-23T12:09:07.372Z,86.99
2018-12-23T12:11:33.660Z,86.26
2018-12-23T12:13:59.779Z,85.38
2018-12-23T12:16:25.907Z,86.33
2018-12-23T12:18:52.134Z,86.40
2018-12-23T12:21:18.255Z,85.16
2018-12-23T12:23:44.363Z,84.58
2018-12-23T12:26:10.543Z,84.37
2018-12-23T12:28:36.671Z,84.83
2018-12-23T12:31:02.843Z,85.76
2018-12-23T12:33:28.948Z,86.16
2018-12-23T12:35:55.162Z,86.63
2018-12-23T12:38:21.419Z,86.40
2018-12-23T12:40:47.519Z,87.06
2018-12-23T12:43:13.627Z,84.69
2018-12-23T12:45:39.739Z,85.94
2018-12-23T12:48:05.842Z,86.30
2018-12-23T12:50:31.946Z,86.13
2018-12-23T12:52:58.067Z,86.63
2018-12-23T12:55:24.188Z,86.41
2018-12-23T12:57:50.290Z,85.86
2018-12-23T13:00:16.398Z,85.46
2018-12-23T13:02:42.510Z,85.55
2018-12-23T13:05:08.630Z,86.14
2018-12-23T13:07:34.800Z,85.83
2018-12-23T13:10:00.923Z,85.45
2018-12-23T13:12:27.028Z,85.46
2018-12-23T13:14:53.140Z,85.01
2018-12-23T13:17:19.243Z,85.57
2018-12-23T13:19:45.362Z,85.23
2018-12-23T13:22:11.491Z,85.86
2018-12-23T13:24:37.609Z,85.30
2018-12-23T13:27:03.731Z,84.42
2018-12-23T13:29:29.845Z,85.15
2018-12-23T13:31:55.938Z,83.59
2018-12-23T13:34:22.055Z,83.73
2018-12-23T13:36:48.155Z,84.72
2018-12-23T13:39:14.266Z,84.46
2018-12-23T13:41:53.805Z,85.36
2018-12-23T13:44:31.938Z,85.55
2018-12-23T13:51:08.769Z,86.29
2018-12-23T13:54:16.610Z,85.72
2018-12-23T13:57:22.576Z,85.37
2018-12-23T14:12:04.104Z,84.44
2018-12-23T14:14:30.352Z,84.13
2018-12-23T14:16:56.600Z,84.81
2018-12-23T14:19:22.957Z,83.59
2018-12-23T14:21:49.307Z,84.45
2018-12-23T14:24:15.563Z,84.24
2018-12-23T14:26:41.811Z,84.42
2018-12-23T14:29:08.068Z,84.30
2018-12-23T14:31:34.308Z,83.98
2018-12-23T14:34:00.587Z,83.96
2018-12-23T14:36:26.852Z,84.40
2018-12-23T14:38:53.095Z,84.17
2018-12-23T14:41:19.361Z,83.86
2018-12-23T14:43:45.597Z,83.82
2018-12-23T14:46:11.984Z,83.48
2018-12-23T14:48:38.226Z,83.41
2018-12-23T14:51:04.591Z,83.53
2018-12-23T14:53:30.845Z,83.75
2018-12-23T14:55:57.199Z,83.27
2018-12-23T14:58:23.448Z,82.66
2018-12-23T15:00:49.813Z,82.68
2018-12-23T15:03:16.168Z,82.56
2018-12-23T15:05:42.532Z,82.75
2018-12-23T15:08:08.782Z,83.40
2018-12-23T15:10:35.067Z,83.22
2018-12-23T15:13:01.328Z,83.47
2018-12-23T15:15:27.569Z,83.36
2018-12-23T15:17:53.938Z,82.53
2018-12-23T15:20:20.171Z,82.79
2018-12-23T15:22:46.429Z,83.40
2018-12-23T15:25:12.674Z,82.26
2018-12-23T15:27:39.032Z,82.34
2018-12-23T15:30:05.375Z,81.97
2018-12-23T15:32:31.623Z,82.21
2018-12-23T15:34:57.867Z,82.62
2018-12-23T15:37:24.228Z,83.25
2018-12-23T15:39:50.467Z,82.98
2018-12-23T15:42:16.719Z,82.99
2018-12-23T15:44:42.960Z,82.63
2018-12-23T15:47:09.320Z,83.17
2018-12-23T15:49:35.561Z,82.66
2018-12-23T15:52:01.897Z,82.50
2018-12-23T15:54:28.179Z,81.79
2018-12-23T15:56:54.522Z,82.06
2018-12-23T15:59:20.769Z,82.09
2018-12-23T16:01:47.128Z,82.01
2018-12-23T16:04:13.399Z,82.23
2018-12-23T16:06:39.657Z,81.69
2018-12-23T16:09:51.086Z,82.00
2018-12-23T16:12:15.507Z,82.70
2018-12-23T16:14:41.835Z,82.34
2018-12-23T16:17:08.076Z,82.37
2018-12-23T16:19:34.437Z,82.69
2018-12-23T16:22:42.077Z,82.80
2018-12-23T16:25:08.400Z,82.11
2018-12-23T16:27:34.746Z,81.09
2018-12-23T16:30:01.052Z,81.78
2018-12-23T16:32:27.242Z,81.72
2018-12-23T16:34:53.499Z,81.15
2018-12-23T16:37:19.736Z,82.39
2018-12-23T16:39:45.978Z,82.83
2018-12-23T16:42:12.235Z,82.16
2018-12-23T16:44:38.482Z,81.66
2018-12-23T16:47:04.731Z,80.94
2018-12-23T16:49:31.072Z,81.12
2018-12-23T16:51:57.429Z,81.09
2018-12-23T16:54:23.766Z,81.37
2018-12-23T16:56:50.129Z,81.55
2018-12-23T16:59:16.467Z,80.93
2018-12-23T17:01:42.715Z,80.76
2018-12-23T17:04:09.051Z,81.57
2018-12-23T17:06:35.298Z,81.16
2018-12-23T17:09:01.551Z,81.26
2018-12-23T17:11:27.802Z,80.79
2018-12-23T17:13:54.055Z,80.48
2018-12-23T17:16:20.399Z,80.81
2018-12-23T17:18:46.660Z,80.93
2018-12-23T17:21:13.010Z,80.89
2018-12-23T17:23:39.378Z,80.87
2018-12-23T17:26:05.626Z,80.44
2018-12-23T17:28:32.006Z,81.09
2018-12-23T17:30:58.347Z,81.68
2018-12-23T17:33:24.713Z,81.24
2018-12-23T17:35:50.959Z,81.19
2018-12-23T17:38:17.318Z,80.44
2018-12-23T17:40:43.650Z,80.72
2018-12-23T17:43:09.909Z,81.58
2018-12-23T17:45:36.151Z,81.95
2018-12-23T17:48:02.495Z,81.47
2018-12-23T17:50:28.853Z,80.86
2018-12-23T17:52:55.214Z,81.47
2018-12-23T17:55:21.461Z,81.16
2018-12-23T17:57:47.812Z,81.22
2018-12-23T18:00:14.168Z,81.12
2018-12-23T18:02:40.527Z,80.67
2018-12-23T18:05:06.820Z,81.23
2018-12-23T18:07:33.139Z,81.50
2018-12-23T18:09:59.497Z,81.90
2018-12-23T18:12:25.748Z,81.79
2018-12-23T18:14:52.031Z,81.59
2018-12-23T18:17:18.450Z,81.54
2018-12-23T18:19:44.836Z,80.89
2018-12-23T18:22:11.100Z,80.29
2018-12-23T18:24:37.450Z,80.46
2018-12-23T18:27:03.695Z,80.84
2018-12-23T18:29:29.938Z,80.53
2018-12-23T18:31:56.191Z,80.80
2018-12-23T18:34:22.534Z,80.57
2018-12-23T18:36:48.788Z,79.94
2018-12-23T18:39:15.033Z,80.39
2018-12-23T18:41:41.428Z,80.45
2018-12-23T18:44:07.679Z,81.32
2018-12-23T18:46:33.912Z,81.80
2018-12-23T18:49:00.266Z,81.45
2018-12-23T18:51:26.527Z,81.47
2018-12-23T18:53:52.768Z,81.13
2018-12-23T18:57:00.428Z,81.13
2018-12-23T18:59:26.690Z,80.98
2018-12-23T19:02:34.354Z,80.25
2018-12-23T19:05:00.708Z,79.96
2018-12-23T19:07:26.944Z,79.95
2018-12-23T19:10:41.771Z,79.82
2018-12-23T19:13:42.368Z,79.88
2018-12-23T19:16:48.231Z,80.46
2018-12-23T19:19:54.095Z,80.52
2018-12-23T19:26:00.567Z,81.05
2018-12-23T19:32:06.757Z,81.03
2018-12-23T19:35:05.401Z,80.29
2018-12-23T19:41:11.891Z,80.15
2018-12-23T19:47:18.050Z,78.78
2018-12-23T19:50:23.896Z,79.10
2018-12-23T19:53:29.755Z,79.32
2018-12-23T19:59:36.099Z,80.52
2018-12-23T20:02:43.758Z,80.66
2018-12-23T20:05:50.449Z,79.73
2018-12-23T20:08:56.385Z,80.10
2018-12-23T20:12:02.232Z,79.82
2018-12-23T20:15:08.089Z,80.17
2018-12-23T20:18:13.927Z,80.55
2018-12-23T20:21:19.833Z,80.57
2018-12-23T20:24:25.701Z,81.15
2018-12-23T20:27:33.338Z,80.28
2018-12-23T20:33:40.100Z,79.77
2018-12-23T20:36:47.767Z,80.25
2018-12-23T20:43:06.953Z,81.95
2018-12-23T20:46:12.708Z,80.58
2018-12-23T20:49:18.496Z,80.72
2018-12-23T20:52:24.340Z,80.75
2018-12-23T20:55:30.200Z,79.00
2018-12-23T21:07:38.190Z,78.63
2018-12-23T21:10:44.052Z,79.80
2018-12-23T21:20:04.379Z,79.98
2018-12-23T21:26:11.270Z,79.81
2018-12-23T21:29:17.119Z,79.53
2018-12-23T21:32:22.975Z,80.21
2018-12-23T21:35:28.821Z,80.45
2018-12-23T21:38:36.532Z,79.72
2018-12-23T21:41:42.427Z,79.39
2018-12-23T21:53:50.276Z,80.42
2018-12-23T21:56:56.160Z,79.73
2018-12-23T22:00:03.828Z,79.92
2018-12-23T22:03:09.686Z,80.11
2018-12-23T22:06:15.545Z,80.38
2018-12-23T22:09:21.407Z,80.05
2018-12-23T22:12:27.282Z,80.18
2018-12-23T22:14:53.639Z,80.10
2018-12-23T22:17:19.985Z,80.60
2018-12-23T22:19:46.235Z,80.80
2018-12-23T22:22:12.495Z,80.64
2018-12-23T22:24:38.749Z,80.49
2018-12-23T22:27:04.987Z,80.49
2018-12-23T22:29:31.347Z,80.93
2018-12-23T22:31:57.603Z,81.19
2018-12-23T22:34:23.946Z,80.86
2018-12-23T22:36:50.284Z,80.92
2018-12-23T22:39:16.527Z,81.29
2018-12-23T22:41:42.892Z,83.00
2018-12-23T22:44:09.139Z,81.78
2018-12-23T22:46:35.405Z,81.64
2018-12-23T22:49:01.639Z,81.65
2018-12-23T22:51:27.898Z,82.85
2018-12-23T22:53:54.132Z,82.87
2018-12-23T22:56:20.395Z,82.25
2018-12-23T22:58:46.735Z,80.81
2018-12-23T23:01:13.094Z,80.55
2018-12-23T23:03:39.471Z,80.93
2018-12-23T23:06:05.826Z,80.84
2018-12-23T23:08:32.193Z,81.00
2018-12-23T23:10:58.531Z,80.73
2018-12-23T23:13:24.784Z,81.03
2018-12-23T23:15:51.047Z,80.99
2018-12-23T23:18:17.418Z,81.12
2018-12-23T23:20:43.756Z,81.06
2018-12-23T23:23:10.015Z,80.70
2018-12-23T23:25:36.257Z,82.71
2018-12-23T23:28:02.612Z,82.93
2018-12-23T23:30:28.952Z,81.40
2018-12-23T23:32:55.211Z,81.34
2018-12-23T23:35:21.452Z,81.96
2018-12-23T23:37:47.823Z,81.76
2018-12-23T23:40:14.073Z,82.86
2018-12-23T23:42:40.324Z,83.34
2018-12-23T23:45:06.685Z,83.24
2018-12-23T23:47:33.029Z,83.45
2018-12-23T23:49:59.280Z,83.90
2018-12-23T23:52:25.524Z,83.68
2018-12-23T23:54:51.895Z,85.16
2018-12-23T23:57:18.142Z,85.53
2018-12-23T23:59:44.502Z,84.78
